createdAt,value
2019-04-11T00:01:18.351Z,84.43
2019-04-11T00:03:49.361Z,81.97
2019-04-11T00:06:19.548Z,80.70
2019-04-11T00:08:50.154Z,77.63
2019-04-11T00:11:20.312Z,79.10
2019-04-11T00:13:51.467Z,81.00
2019-04-11T00:16:21.892Z,80.77
2019-04-11T00:18:53.228Z,81.10
2019-04-11T00:21:23.146Z,79.67
2019-04-11T00:23:52.529Z,80.07
2019-04-11T00:26:22.693Z,79.40
2019-04-11T00:28:52.088Z,83.33
2019-04-11T00:31:21.475Z,85.07
2019-04-11T00:33:51.838Z,80.63
2019-04-11T00:36:24.217Z,78.90
2019-04-11T00:38:55.178Z,82.70
2019-04-11T00:41:25.977Z,81.07
2019-04-11T00:43:56.687Z,77.27
2019-04-11T00:46:26.606Z,81.32
2019-04-11T00:48:57.710Z,79.57
2019-04-11T00:51:29.840Z,76.97
2019-04-11T00:54:00.576Z,77.10
2019-04-11T00:56:30.457Z,75.60
2019-04-11T00:59:02.363Z,77.20
2019-04-11T01:01:35.709Z,78.30
2019-04-11T01:04:05.413Z,81.60
2019-04-11T01:06:36.497Z,77.80
2019-04-11T01:09:08.301Z,76.10
2019-04-11T01:11:40.394Z,82.63
2019-04-11T01:14:10.312Z,76.53
2019-04-11T01:16:50.932Z,79.70
2019-04-11T01:19:20.531Z,79.60
2019-04-11T01:21:51.509Z,77.70
2019-04-11T01:24:23.927Z,79.37
2019-04-11T01:26:53.872Z,74.70
2019-04-11T01:29:27.227Z,77.20
2019-04-11T01:32:02.267Z,76.67
2019-04-11T01:34:32.810Z,77.10
2019-04-11T01:37:03.793Z,80.67
2019-04-11T01:40:11.791Z,78.20
2019-04-11T01:42:41.807Z,73.83
2019-04-11T01:45:13.514Z,73.78
2019-04-11T01:48:04.418Z,74.47
2019-04-11T01:50:35.324Z,71.30
2019-04-11T01:53:05.178Z,70.53
2019-04-11T01:55:36.649Z,67.72
2019-04-11T01:58:07.020Z,62.83
2019-04-11T02:00:56.813Z,57.30
2019-04-11T02:03:41.749Z,50.77
2019-04-11T02:06:11.825Z,42.98
2019-04-11T02:08:41.777Z,39.27
2019-04-11T02:11:12.940Z,35.50
2019-04-11T02:13:43.829Z,32.77
2019-04-11T02:16:13.246Z,32.40
2019-04-11T02:18:43.610Z,28.30
2019-04-11T02:21:13.611Z,29.30
2019-04-11T02:23:55.182Z,28.87
2019-04-11T02:26:29.278Z,29.40
2019-04-11T02:28:59.353Z,29.50
2019-04-11T02:31:30.628Z,28.43
2019-04-11T02:34:01.996Z,28.12
2019-04-11T02:36:32.213Z,28.70
2019-04-11T02:39:08.032Z,27.93
2019-04-11T02:41:35.751Z,28.63
2019-04-11T02:44:11.767Z,29.77
2019-04-11T02:46:47.883Z,27.90
2019-04-11T02:49:10.263Z,29.00
2019-04-11T02:51:40.204Z,27.47
2019-04-11T02:54:11.502Z,27.80
2019-04-11T02:56:43.586Z,26.85
2019-04-11T02:59:13.466Z,28.30
2019-04-11T03:01:43.993Z,27.63
2019-04-11T03:04:14.856Z,27.23
2019-04-11T03:06:47.786Z,28.57
2019-04-11T03:09:22.054Z,27.22
2019-04-11T03:11:52.649Z,27.07
2019-04-11T03:14:23.320Z,26.85
2019-04-11T03:17:03.681Z,25.30
2019-04-11T03:19:42.394Z,25.33
2019-04-11T03:21:57.160Z,26.80
2019-04-11T03:24:29.469Z,26.23
2019-04-11T03:27:04.118Z,25.70
2019-04-11T03:29:33.342Z,24.60
2019-04-11T03:32:42.061Z,24.17
2019-04-11T03:37:26.088Z,24.67
2019-04-11T03:40:02.434Z,24.97
2019-04-11T03:42:29.239Z,23.60
2019-04-11T03:44:47.294Z,23.70
2019-04-11T03:47:27.821Z,25.13
2019-04-11T03:49:51.840Z,24.63
2019-04-11T03:52:21.418Z,23.73
2019-04-11T03:54:51.671Z,24.40
2019-04-11T03:57:21.595Z,24.90
2019-04-11T03:59:52.033Z,24.10
2019-04-11T04:02:24.569Z,26.80
2019-04-11T04:04:54.711Z,24.40
2019-04-11T04:07:27.735Z,24.67
2019-04-11T04:09:58.617Z,23.77
2019-04-11T04:12:29.387Z,24.32
2019-04-11T04:15:29.939Z,25.40
2019-04-11T04:17:57.322Z,25.40
2019-04-11T04:20:59.752Z,25.47
2019-04-11T04:23:33.685Z,24.10
2019-04-11T04:26:06.217Z,25.40
2019-04-11T04:28:35.746Z,24.93
2019-04-11T04:31:09.134Z,24.93
2019-04-11T04:33:40.024Z,24.33
2019-04-11T04:36:10.892Z,26.03
2019-04-11T04:38:44.584Z,24.87
2019-04-11T04:41:27.933Z,25.70
2019-04-11T04:43:48.416Z,24.87
2019-04-11T04:46:34.467Z,24.20
2019-04-11T04:48:51.405Z,24.60
2019-04-11T04:51:24.245Z,25.00
2019-04-11T04:53:53.268Z,24.07
2019-04-11T04:56:28.396Z,24.60
2019-04-11T04:58:55.966Z,24.30
2019-04-11T05:01:26.581Z,24.80
2019-04-11T05:03:58.170Z,24.77
2019-04-11T05:06:29.146Z,25.60
2019-04-11T05:09:00.046Z,26.17
2019-04-11T05:11:30.684Z,23.60
2019-04-11T05:14:01.031Z,24.63
2019-04-11T05:16:31.521Z,25.30
2019-04-11T05:19:01.125Z,23.67
2019-04-11T05:21:31.602Z,23.97
2019-04-11T05:24:02.035Z,23.73
2019-04-11T05:26:31.489Z,23.57
2019-04-11T05:29:00.880Z,24.77
2019-04-11T05:31:32.259Z,23.87
2019-04-11T05:34:01.651Z,24.83
2019-04-11T05:36:32.148Z,25.90
2019-04-11T05:39:02.558Z,25.20
2019-04-11T05:41:33.825Z,23.30
2019-04-11T05:44:09.789Z,24.37
2019-04-11T05:46:49.158Z,24.47
2019-04-11T05:49:14.663Z,24.27
2019-04-11T05:52:00.493Z,23.20
2019-04-11T05:54:38.824Z,24.72
2019-04-11T05:57:07.327Z,24.07
2019-04-11T05:59:39.015Z,24.20
2019-04-11T06:02:45.688Z,24.50
2019-04-11T06:05:43.119Z,22.58
2019-04-11T06:08:21.116Z,23.47
2019-04-11T06:11:09.481Z,24.20
2019-04-11T06:14:05.753Z,23.40
2019-04-11T06:16:43.587Z,23.30
2019-04-11T06:19:30.490Z,25.07
2019-04-11T06:22:04.453Z,23.10
2019-04-11T06:24:52.362Z,23.93
2019-04-11T06:27:53.580Z,26.50
2019-04-11T06:30:40.818Z,22.02
2019-04-11T06:33:24.653Z,21.00
2019-04-11T06:36:26.655Z,24.50
2019-04-11T06:39:15.887Z,23.43
2019-04-11T06:42:13.365Z,24.50
2019-04-11T06:45:02.211Z,25.00
2019-04-11T06:47:53.449Z,23.10
2019-04-11T06:50:29.317Z,25.60
2019-04-11T06:53:00.225Z,24.10
2019-04-11T06:55:50.908Z,24.33
2019-04-11T06:58:29.779Z,25.43
2019-04-11T07:01:06.484Z,25.55
2019-04-11T07:03:42.295Z,24.47
2019-04-11T07:06:18.012Z,25.07
2019-04-11T07:08:59.035Z,25.63
2019-04-11T07:11:38.420Z,24.13
2019-04-11T07:14:22.455Z,22.90
2019-04-11T07:17:13.443Z,25.80
2019-04-11T07:20:02.456Z,24.60
2019-04-11T07:22:50.885Z,23.80
2019-04-11T07:25:52.163Z,25.90
2019-04-11T07:28:46.596Z,25.57
2019-04-11T07:31:48.343Z,25.60
2019-04-11T07:34:39.224Z,25.32
2019-04-11T07:37:26.349Z,26.03
2019-04-11T07:40:24.205Z,26.00
2019-04-11T07:43:19.912Z,24.10
2019-04-11T07:46:24.975Z,25.50
2019-04-11T07:49:02.245Z,24.80
2019-04-11T07:51:36.504Z,25.15
2019-04-11T07:54:09.294Z,25.77
2019-04-11T07:57:04.019Z,26.17
2019-04-11T07:59:53.371Z,25.50
2019-04-11T08:02:41.898Z,27.22
2019-04-11T08:05:30.605Z,26.27
2019-04-11T08:08:25.751Z,26.73
2019-04-11T08:11:03.014Z,25.10
2019-04-11T08:13:38.809Z,27.57
2019-04-11T08:16:28.941Z,26.03
2019-04-11T08:19:26.849Z,27.40
2019-04-11T08:22:16.921Z,27.27
2019-04-11T08:24:56.505Z,26.93
2019-04-11T08:27:48.470Z,26.85
2019-04-11T08:30:08.713Z,26.10
2019-04-11T08:32:56.314Z,26.80
2019-04-11T08:35:53.439Z,27.57
2019-04-11T08:38:32.185Z,26.73
2019-04-11T08:41:42.038Z,26.43
2019-04-11T08:44:19.852Z,26.73
2019-04-11T08:46:54.166Z,25.97
2019-04-11T08:49:32.195Z,26.67
2019-04-11T08:52:08.219Z,27.35
2019-04-11T08:54:55.713Z,28.43
2019-04-11T08:57:42.606Z,25.07
2019-04-11T09:00:49.086Z,26.80
2019-04-11T09:03:31.531Z,26.63
2019-04-11T09:06:16.702Z,27.87
2019-04-11T09:09:11.175Z,26.77
2019-04-11T09:12:06.990Z,29.53
2019-04-11T09:15:02.535Z,27.97
2019-04-11T09:17:36.663Z,29.98
2019-04-11T09:20:41.564Z,30.43
2019-04-11T09:23:13.689Z,29.70
2019-04-11T09:26:01.730Z,29.52
2019-04-11T09:28:49.825Z,29.20
2019-04-11T09:31:41.973Z,30.62
2019-04-11T09:34:33.606Z,32.60
2019-04-11T09:37:35.839Z,30.57
2019-04-11T09:40:26.602Z,28.80
2019-04-11T09:43:16.274Z,30.13
2019-04-11T09:46:12.380Z,30.90
2019-04-11T09:48:53.582Z,31.60
2019-04-11T09:51:52.005Z,31.85
2019-04-11T09:54:37.788Z,30.50
2019-04-11T09:57:24.760Z,30.12
2019-04-11T10:00:22.926Z,33.57
2019-04-11T10:03:11.668Z,31.07
2019-04-11T10:05:50.312Z,31.20
2019-04-11T10:08:43.652Z,30.30
2019-04-11T10:11:36.335Z,30.97
2019-04-11T10:14:15.575Z,31.07
2019-04-11T10:17:04.548Z,32.60
2019-04-11T10:19:58.554Z,33.50
2019-04-11T10:22:45.945Z,33.03
2019-04-11T10:25:28.432Z,32.72
2019-04-11T10:28:19.998Z,33.43
2019-04-11T10:31:10.667Z,33.10
2019-04-11T10:34:09.520Z,35.83
2019-04-11T10:36:53.669Z,33.50
2019-04-11T10:39:54.106Z,31.73
2019-04-11T10:42:26.640Z,32.00
2019-04-11T10:45:25.046Z,28.80
2019-04-11T10:48:09.629Z,30.97
2019-04-11T10:51:04.573Z,31.90
2019-04-11T10:53:35.381Z,31.35
2019-04-11T10:56:26.362Z,33.57
2019-04-11T10:58:57.968Z,32.10
2019-04-11T11:02:00.280Z,31.73
2019-04-11T11:04:48.561Z,28.30
2019-04-11T11:07:21.615Z,30.77
2019-04-11T11:09:58.965Z,28.63
2019-04-11T11:12:54.766Z,31.30
2019-04-11T11:15:27.508Z,32.90
2019-04-11T11:19:07.517Z,32.07
2019-04-11T11:21:02.605Z,31.90
2019-04-11T11:24:05.457Z,32.17
2019-04-11T11:26:35.572Z,32.35
2019-04-11T11:29:24.315Z,31.33
2019-04-11T11:32:03.178Z,32.40
2019-04-11T11:34:40.991Z,34.07
2019-04-11T11:37:29.164Z,31.40
2019-04-11T11:40:17.976Z,31.93
2019-04-11T11:43:06.544Z,32.05
2019-04-11T11:46:04.435Z,35.20
2019-04-11T11:48:52.229Z,34.23
2019-04-11T11:51:29.247Z,36.13
2019-04-11T11:54:05.159Z,32.70
2019-04-11T11:56:38.119Z,37.78
2019-04-11T11:59:18.316Z,36.23
2019-04-11T12:01:52.749Z,35.75
2019-04-11T12:04:42.237Z,36.13
2019-04-11T12:07:14.419Z,38.70
2019-04-11T12:10:13.248Z,37.00
2019-04-11T12:13:05.862Z,35.70
2019-04-11T12:15:53.236Z,36.90
2019-04-11T12:18:48.603Z,38.33
2019-04-11T12:21:26.046Z,35.60
2019-04-11T12:24:13.459Z,35.47
2019-04-11T12:26:51.778Z,38.87
2019-04-11T12:29:49.020Z,42.23
2019-04-11T12:32:22.422Z,40.75
2019-04-11T12:35:21.939Z,41.87
2019-04-11T12:37:57.853Z,41.60
2019-04-11T12:40:45.355Z,43.67
2019-04-11T12:43:15.844Z,42.73
2019-04-11T12:46:03.007Z,41.03
2019-04-11T12:48:37.855Z,42.70
2019-04-11T12:51:36.870Z,42.27
2019-04-11T12:54:22.125Z,41.73
2019-04-11T12:57:16.264Z,42.33
2019-04-11T12:59:46.681Z,41.67
2019-04-11T13:02:36.432Z,41.90
2019-04-11T13:05:09.718Z,41.40
2019-04-11T13:08:06.996Z,42.78
2019-04-11T13:10:39.622Z,43.30
2019-04-11T13:13:27.985Z,44.17
2019-04-11T13:16:12.325Z,42.60
2019-04-11T13:19:04.244Z,43.17
2019-04-11T13:22:02.536Z,43.43
2019-04-11T13:24:50.874Z,43.37
2019-04-11T13:27:30.168Z,42.70
2019-04-11T13:30:20.704Z,42.37
2019-04-11T13:33:01.753Z,42.85
2019-04-11T13:35:56.109Z,42.62
2019-04-11T13:38:30.378Z,41.43
2019-04-11T13:41:20.370Z,44.33
2019-04-11T13:44:23.271Z,44.05
2019-04-11T13:47:25.712Z,43.63
2019-04-11T13:49:57.759Z,43.95
2019-04-11T13:52:46.814Z,44.08
2019-04-11T13:55:27.966Z,43.80
2019-04-11T13:58:17.779Z,42.43
2019-04-11T14:00:51.552Z,44.33
2019-04-11T14:03:49.987Z,44.43
2019-04-11T14:06:31.799Z,43.63
2019-04-11T14:09:22.977Z,42.95
2019-04-11T14:12:04.741Z,44.83
2019-04-11T14:14:56.423Z,44.10
2019-04-11T14:17:44.238Z,45.63
2019-04-11T14:20:29.460Z,43.00
2019-04-11T14:23:24.460Z,42.30
2019-04-11T14:26:15.089Z,45.93
2019-04-11T14:29:09.617Z,43.97
2019-04-11T14:31:54.716Z,44.50
2019-04-11T14:34:42.356Z,42.00
2019-04-11T14:37:38.073Z,42.27
2019-04-11T14:40:11.414Z,43.70
2019-04-11T14:43:02.887Z,43.53
2019-04-11T14:45:55.885Z,43.83
2019-04-11T14:48:42.556Z,43.93
2019-04-11T14:51:43.990Z,45.23
2019-04-11T14:54:19.560Z,43.48
2019-04-11T14:56:56.950Z,42.80
2019-04-11T14:59:34.508Z,41.50
2019-04-11T15:02:27.650Z,43.40
2019-04-11T15:05:13.812Z,44.67
2019-04-11T15:07:46.085Z,45.53
2019-04-11T15:10:39.145Z,45.52
2019-04-11T15:13:09.968Z,45.37
2019-04-11T15:15:58.469Z,43.97
2019-04-11T15:18:31.544Z,45.00
2019-04-11T15:21:21.571Z,43.73
2019-04-11T15:23:53.807Z,45.50
2019-04-11T15:26:57.109Z,43.60
2019-04-11T15:29:30.544Z,44.50
2019-04-11T15:32:17.835Z,44.17
2019-04-11T15:34:53.216Z,44.35
2019-04-11T15:37:47.508Z,43.80
2019-04-11T15:40:29.144Z,46.96
2019-04-11T15:43:17.253Z,47.13
2019-04-11T15:45:57.640Z,46.43
2019-04-11T15:49:01.358Z,45.87
2019-04-11T15:51:38.255Z,45.03
2019-04-11T15:54:27.248Z,45.43
2019-04-11T15:57:28.171Z,46.60
2019-04-11T16:00:16.687Z,47.07
2019-04-11T16:02:49.549Z,45.35
2019-04-11T16:05:49.810Z,47.13
2019-04-11T16:08:44.485Z,45.83
2019-04-11T16:11:42.223Z,44.17
2019-04-11T16:14:19.825Z,45.33
2019-04-11T16:17:13.850Z,45.43
2019-04-11T16:19:54.796Z,47.17
2019-04-11T16:22:43.394Z,46.70
2019-04-11T16:25:18.197Z,48.37
2019-04-11T16:28:07.795Z,48.57
2019-04-11T16:31:02.217Z,47.73
2019-04-11T16:33:54.556Z,49.63
2019-04-11T16:36:43.403Z,47.73
2019-04-11T16:39:33.070Z,47.77
2019-04-11T16:42:13.944Z,46.00
2019-04-11T16:45:01.738Z,45.37
2019-04-11T16:47:59.541Z,46.50
2019-04-11T16:50:30.110Z,40.55
2019-04-11T16:53:01.392Z,42.33
2019-04-11T16:55:33.379Z,41.77
2019-04-11T16:58:05.363Z,43.67
2019-04-11T17:00:38.461Z,45.40
2019-04-11T17:03:10.166Z,43.70
2019-04-11T17:05:43.011Z,42.67
2019-04-11T17:08:32.513Z,41.90
2019-04-11T17:11:12.807Z,42.40
2019-04-11T17:13:42.260Z,43.33
2019-04-11T17:16:13.504Z,42.03
2019-04-11T17:18:43.169Z,41.83
2019-04-11T17:21:12.552Z,43.33
2019-04-11T17:23:41.996Z,42.77
2019-04-11T17:26:11.970Z,43.47
2019-04-11T17:28:43.347Z,42.53
2019-04-11T17:31:12.399Z,43.17
2019-04-11T17:33:42.068Z,42.33
2019-04-11T17:36:12.243Z,44.17
2019-04-11T17:38:41.934Z,41.70
2019-04-11T17:41:12.113Z,42.80
2019-04-11T17:43:46.786Z,43.20
2019-04-11T17:46:16.607Z,41.43
2019-04-11T17:48:46.260Z,44.03
2019-04-11T17:51:16.215Z,43.35
2019-04-11T17:53:45.672Z,42.67
2019-04-11T17:56:16.877Z,44.40
2019-04-11T17:58:46.196Z,42.90
2019-04-11T18:01:16.325Z,41.60
2019-04-11T18:03:46.284Z,38.10
2019-04-11T18:06:17.213Z,38.78
2019-04-11T18:08:51.319Z,38.40
2019-04-11T18:11:18.532Z,39.33
2019-04-11T18:13:47.918Z,36.30
2019-04-11T18:16:18.570Z,36.77
2019-04-11T18:18:47.956Z,34.83
2019-04-11T18:21:18.137Z,37.70
2019-04-11T18:23:49.888Z,38.43
2019-04-11T18:26:19.044Z,36.63
2019-04-11T18:28:51.826Z,37.10
2019-04-11T18:31:24.752Z,34.70
2019-04-11T18:33:51.750Z,37.97
2019-04-11T18:36:21.133Z,37.10
2019-04-11T18:38:50.524Z,36.50
2019-04-11T18:41:20.041Z,36.70
2019-04-11T18:43:53.110Z,37.80
2019-04-11T18:46:22.547Z,33.50
2019-04-11T18:48:54.514Z,36.97
2019-04-11T18:51:23.813Z,35.43
2019-04-11T18:53:53.219Z,36.07
2019-04-11T18:56:22.646Z,33.60
2019-04-11T18:58:52.266Z,34.27
2019-04-11T19:01:21.760Z,35.30
2019-04-11T19:03:51.165Z,34.87
2019-04-11T19:06:27.820Z,33.33
2019-04-11T19:08:51.652Z,30.93
2019-04-11T19:11:21.192Z,33.38
2019-04-11T19:13:55.780Z,32.30
2019-04-11T19:16:25.551Z,31.97
2019-04-11T19:18:54.889Z,29.30
2019-04-11T19:21:24.481Z,31.63
2019-04-11T19:23:54.731Z,34.47
2019-04-11T19:26:24.246Z,33.97
2019-04-11T19:28:55.235Z,31.97
2019-04-11T19:31:27.467Z,32.05
2019-04-11T19:33:56.465Z,32.13
2019-04-11T19:36:26.277Z,31.67
2019-04-11T19:38:55.969Z,31.90
2019-04-11T19:41:25.542Z,32.10
2019-04-11T19:43:54.966Z,30.67
2019-04-11T19:46:25.237Z,33.23
2019-04-11T19:48:57.068Z,32.63
2019-04-11T19:51:28.513Z,30.00
2019-04-11T19:53:57.118Z,31.40
2019-04-11T19:56:34.622Z,32.37
2019-04-11T19:59:04.573Z,33.18
2019-04-11T20:01:34.062Z,33.67
2019-04-11T20:04:05.712Z,32.87
2019-04-11T20:06:35.128Z,32.90
2019-04-11T20:09:06.351Z,33.93
2019-04-11T20:11:36.483Z,31.70
2019-04-11T20:14:07.903Z,32.60
2019-04-11T20:16:42.045Z,30.72
2019-04-11T20:19:11.484Z,32.43
2019-04-11T20:21:40.821Z,32.37
2019-04-11T20:24:14.118Z,32.87
2019-04-11T20:26:41.792Z,31.83
2019-04-11T20:29:11.194Z,31.30
2019-04-11T20:31:40.571Z,33.33
2019-04-11T20:34:10.013Z,30.97
2019-04-11T20:36:41.296Z,31.23
2019-04-11T20:39:14.962Z,32.77
2019-04-11T20:41:42.716Z,31.33
2019-04-11T20:44:12.142Z,32.20
2019-04-11T20:46:41.676Z,31.13
2019-04-11T20:49:12.180Z,32.10
2019-04-11T20:51:42.213Z,30.43
2019-04-11T20:54:12.135Z,29.47
2019-04-11T20:56:42.191Z,31.53
2019-04-11T20:59:12.495Z,30.37
2019-04-11T21:01:41.886Z,32.20
2019-04-11T21:04:14.689Z,33.20
2019-04-11T21:06:44.281Z,30.33
2019-04-11T21:09:14.680Z,32.57
2019-04-11T21:11:48.089Z,30.90
2019-04-11T21:14:18.030Z,31.17
2019-04-11T21:16:47.424Z,31.03
2019-04-11T21:19:20.409Z,30.20
2019-04-11T21:21:49.817Z,29.80
2019-04-11T21:24:19.184Z,32.00
2019-04-11T21:26:52.246Z,31.67
2019-04-11T21:29:22.383Z,31.45
2019-04-11T21:31:51.711Z,31.00
2019-04-11T21:34:23.441Z,30.40
2019-04-11T21:36:52.781Z,29.90
2019-04-11T21:39:23.207Z,31.23
2019-04-11T21:41:53.427Z,31.60
2019-04-11T21:44:23.743Z,32.40
2019-04-11T21:46:53.664Z,32.83
2019-04-11T21:49:25.452Z,32.30
2019-04-11T21:51:55.080Z,32.50
2019-04-11T21:54:24.444Z,33.20
2019-04-11T21:56:54.148Z,33.60
2019-04-11T21:59:23.571Z,32.90
2019-04-11T22:01:54.133Z,33.50
2019-04-11T22:04:26.949Z,32.57
2019-04-11T22:07:00.677Z,33.10
2019-04-11T22:09:28.465Z,32.20
2019-04-11T22:11:58.960Z,33.87
2019-04-11T22:14:28.373Z,31.00
2019-04-11T22:17:00.125Z,33.03
2019-04-11T22:19:29.559Z,32.40
2019-04-11T22:21:58.948Z,33.73
2019-04-11T22:24:28.353Z,32.07
2019-04-11T22:26:57.981Z,33.00
2019-04-11T22:29:27.467Z,34.90
2019-04-11T22:31:56.932Z,34.53
2019-04-11T22:34:37.128Z,34.50
2019-04-11T22:37:07.327Z,35.30
2019-04-11T22:39:36.625Z,34.30
2019-04-11T22:42:07.252Z,35.57
2019-04-11T22:44:38.640Z,35.93
2019-04-11T22:47:08.663Z,36.10
2019-04-11T22:49:39.472Z,32.87
2019-04-11T22:52:11.392Z,32.27
2019-04-11T22:54:42.052Z,30.47
2019-04-11T22:57:12.963Z,30.30
2019-04-11T22:59:45.048Z,29.03
2019-04-11T23:02:24.398Z,29.40
2019-04-11T23:04:54.893Z,28.13
2019-04-11T23:07:25.468Z,29.13
2019-04-11T23:09:55.426Z,28.03
2019-04-11T23:12:24.852Z,28.97
2019-04-11T23:14:55.063Z,26.30
2019-04-11T23:17:24.404Z,28.80
2019-04-11T23:19:59.986Z,29.73
2019-04-11T23:22:29.862Z,28.30
2019-04-11T23:24:59.869Z,27.87
2019-04-11T23:27:29.632Z,28.77
2019-04-11T23:30:00.010Z,26.80
2019-04-11T23:32:30.249Z,27.57
2019-04-11T23:34:59.605Z,27.53
2019-04-11T23:37:30.565Z,27.87
2019-04-11T23:40:00.620Z,30.00
2019-04-11T23:42:31.072Z,27.90
2019-04-11T23:45:03.309Z,28.90
2019-04-11T23:47:32.701Z,29.33
2019-04-11T23:50:02.604Z,28.05
2019-04-11T23:52:31.959Z,28.30
2019-04-11T23:55:01.428Z,29.07
2019-04-11T23:57:31.303Z,27.67
